sensor_id;sensor_type;location;lat;lon;timestamp;P1;durP1;ratioP1;P2;durP2;ratioP2
48375;SDS011;34178;50.904;11.560;2023-08-07T02:29:21;5.85;;;2.80;;
48375;SDS011;34178;50.904;11.560;2023-08-07T02:31:47;9.70;;;2.55;;
48375;SDS011;34178;50.904;11.560;2023-08-07T02:34:12;7.88;;;3.30;;
48375;SDS011;34178;50.904;11.560;2023-08-07T02:36:38;5.93;;;2.45;;
48375;SDS011;34178;50.904;11.560;2023-08-07T02:39:04;5.78;;;2.03;;
48375;SDS011;34178;50.904;11.560;2023-08-07T02:41:29;4.53;;;2.00;;
48375;SDS011;34178;50.904;11.560;2023-08-07T02:43:56;5.45;;;2.13;;
48375;SDS011;34178;50.904;11.560;2023-08-07T02:46:22;4.25;;;1.98;;
48375;SDS011;34178;50.904;11.560;2023-08-07T02:48:48;4.30;;;1.70;;
48375;SDS011;34178;50.904;11.560;2023-08-07T02:51:14;3.85;;;1.75;;
48375;SDS011;34178;50.904;11.560;2023-08-07T02:53:39;7.40;;;2.10;;
48375;SDS011;34178;50.904;11.560;2023-08-07T02:56:05;4.13;;;1.90;;
48375;SDS011;34178;50.904;11.560;2023-08-07T02:58:31;6.10;;;1.88;;
48375;SDS011;34178;50.904;11.560;2023-08-07T03:00:56;5.68;;;1.63;;
48375;SDS011;34178;50.904;11.560;2023-08-07T03:03:27;3.38;;;1.50;;
48375;SDS011;34178;50.904;11.560;2023-08-07T03:05:53;4.15;;;1.98;;
48375;SDS011;34178;50.904;11.560;2023-08-07T03:08:18;3.90;;;1.40;;
48375;SDS011;34178;50.904;11.560;2023-08-07T03:10:54;3.58;;;1.70;;
48375;SDS011;34178;50.904;11.560;2023-08-07T03:13:23;5.95;;;1.80;;
48375;SDS011;34178;50.904;11.560;2023-08-07T03:15:50;5.50;;;1.60;;
48375;SDS011;34178;50.904;11.560;2023-08-07T03:18:23;6.00;;;1.65;;
48375;SDS011;34178;50.904;11.560;2023-08-07T03:20:49;3.83;;;1.35;;
48375;SDS011;34178;50.904;11.560;2023-08-07T03:23:14;5.20;;;1.70;;
48375;SDS011;34178;50.904;11.560;2023-08-07T03:25:40;5.53;;;1.70;;
48375;SDS011;34178;50.904;11.560;2023-08-07T03:28:05;5.13;;;1.48;;
48375;SDS011;34178;50.904;11.560;2023-08-07T03:30:31;4.15;;;1.40;;
48375;SDS011;34178;50.904;11.560;2023-08-07T03:32:57;5.78;;;1.40;;
48375;SDS011;34178;50.904;11.560;2023-08-07T03:35:22;5.32;;;1.42;;
48375;SDS011;34178;50.904;11.560;2023-08-07T03:37:48;3.55;;;1.30;;
48375;SDS011;34178;50.904;11.560;2023-08-07T03:40:14;4.20;;;1.73;;
48375;SDS011;34178;50.904;11.560;2023-08-07T03:42:39;5.35;;;1.33;;
48375;SDS011;34178;50.904;11.560;2023-08-07T03:45:05;5.10;;;1.65;;
48375;SDS011;34178;50.904;11.560;2023-08-07T03:47:31;2.88;;;1.20;;
48375;SDS011;34178;50.904;11.560;2023-08-07T03:49:57;3.47;;;1.95;;
48375;SDS011;34178;50.904;11.560;2023-08-07T03:52:22;4.63;;;1.40;;
48375;SDS011;34178;50.904;11.560;2023-08-07T03:54:48;3.33;;;1.30;;
48375;SDS011;34178;50.904;11.560;2023-08-07T03:57:14;4.45;;;1.65;;
48375;SDS011;34178;50.904;11.560;2023-08-07T03:59:39;1.85;;;1.08;;
48375;SDS011;34178;50.904;11.560;2023-08-07T04:02:05;7.18;;;1.70;;
48375;SDS011;34178;50.904;11.560;2023-08-07T04:04:31;3.50;;;1.40;;
48375;SDS011;34178;50.904;11.560;2023-08-07T04:06:56;4.00;;;1.30;;
48375;SDS011;34178;50.904;11.560;2023-08-07T04:09:22;3.45;;;1.52;;
48375;SDS011;34178;50.904;11.560;2023-08-07T04:11:47;3.72;;;1.40;;
48375;SDS011;34178;50.904;11.560;2023-08-07T04:14:13;3.85;;;1.50;;
48375;SDS011;34178;50.904;11.560;2023-08-07T04:16:39;3.20;;;1.23;;
48375;SDS011;34178;50.904;11.560;2023-08-07T04:19:05;3.80;;;1.40;;
48375;SDS011;34178;50.904;11.560;2023-08-07T04:21:32;2.55;;;1.35;;
48375;SDS011;34178;50.904;11.560;2023-08-07T04:23:58;3.67;;;1.20;;
48375;SDS011;34178;50.904;11.560;2023-08-07T04:26:33;2.83;;;1.30;;
48375;SDS011;34178;50.904;11.560;2023-08-07T04:28:59;3.05;;;1.10;;
48375;SDS011;34178;50.904;11.560;2023-08-07T04:31:24;3.35;;;1.30;;
48375;SDS011;34178;50.904;11.560;2023-08-07T04:33:50;3.17;;;1.52;;
48375;SDS011;34178;50.904;11.560;2023-08-07T04:36:16;5.03;;;1.10;;
48375;SDS011;34178;50.904;11.560;2023-08-07T04:38:41;5.80;;;1.30;;
48375;SDS011;34178;50.904;11.560;2023-08-07T04:41:07;3.10;;;1.40;;
48375;SDS011;34178;50.904;11.560;2023-08-07T04:43:33;3.45;;;1.30;;
48375;SDS011;34178;50.904;11.560;2023-08-07T04:45:59;2.67;;;1.20;;
48375;SDS011;34178;50.904;11.560;2023-08-07T04:48:25;2.75;;;1.02;;
48375;SDS011;34178;50.904;11.560;2023-08-07T04:50:51;1.75;;;0.85;;
48375;SDS011;34178;50.904;11.560;2023-08-07T04:53:16;2.17;;;1.00;;
48375;SDS011;34178;50.904;11.560;2023-08-07T04:55:42;2.38;;;0.98;;
48375;SDS011;34178;50.904;11.560;2023-08-07T04:58:08;2.20;;;0.95;;
48375;SDS011;34178;50.904;11.560;2023-08-07T05:00:34;1.60;;;0.70;;
48375;SDS011;34178;50.904;11.560;2023-08-07T05:02:59;3.85;;;0.75;;
48375;SDS011;34178;50.904;11.560;2023-08-07T05:05:26;1.67;;;0.90;;
48375;SDS011;34178;50.904;11.560;2023-08-07T05:07:54;4.65;;;1.10;;
48375;SDS011;34178;50.904;11.560;2023-08-07T05:10:20;2.10;;;0.70;;
48375;SDS011;34178;50.904;11.560;2023-08-07T05:12:46;1.60;;;0.73;;
48375;SDS011;34178;50.904;11.560;2023-08-07T05:15:12;1.83;;;0.60;;
48375;SDS011;34178;50.904;11.560;2023-08-07T05:17:37;2.00;;;0.93;;
48375;SDS011;34178;50.904;11.560;2023-08-07T05:20:03;1.58;;;0.85;;
48375;SDS011;34178;50.904;11.560;2023-08-07T05:22:30;1.15;;;0.77;;
48375;SDS011;34178;50.904;11.560;2023-08-07T05:24:56;3.55;;;0.60;;
48375;SDS011;34178;50.904;11.560;2023-08-07T05:27:21;2.22;;;0.68;;
48375;SDS011;34178;50.904;11.560;2023-08-07T05:29:47;1.35;;;0.80;;
48375;SDS011;34178;50.904;11.560;2023-08-07T05:32:13;1.38;;;0.75;;
48375;SDS011;34178;50.904;11.560;2023-08-07T05:34:39;2.25;;;0.88;;
48375;SDS011;34178;50.904;11.560;2023-08-07T05:37:06;3.58;;;0.70;;
48375;SDS011;34178;50.904;11.560;2023-08-07T05:39:32;1.63;;;0.90;;
48375;SDS011;34178;50.904;11.560;2023-08-07T05:41:58;5.85;;;1.02;;
48375;SDS011;34178;50.904;11.560;2023-08-07T05:44:24;3.50;;;0.70;;
48375;SDS011;34178;50.904;11.560;2023-08-07T05:46:50;1.70;;;0.90;;
48375;SDS011;34178;50.904;11.560;2023-08-07T05:49:15;1.70;;;0.93;;
48375;SDS011;34178;50.904;11.560;2023-08-07T05:51:41;2.60;;;1.00;;
48375;SDS011;34178;50.904;11.560;2023-08-07T05:54:07;3.25;;;1.00;;
48375;SDS011;34178;50.904;11.560;2023-08-07T05:56:33;2.45;;;0.85;;
48375;SDS011;34178;50.904;11.560;2023-08-07T05:58:59;2.25;;;0.93;;
48375;SDS011;34178;50.904;11.560;2023-08-07T06:01:24;3.13;;;0.80;;
48375;SDS011;34178;50.904;11.560;2023-08-07T06:03:55;1.75;;;0.80;;
48375;SDS011;34178;50.904;11.560;2023-08-07T06:06:24;3.80;;;1.00;;
48375;SDS011;34178;50.904;11.560;2023-08-07T06:08:52;1.77;;;0.90;;
48375;SDS011;34178;50.904;11.560;2023-08-07T06:11:18;0.98;;;0.70;;
48375;SDS011;34178;50.904;11.560;2023-08-07T06:13:44;1.85;;;0.90;;
48375;SDS011;34178;50.904;11.560;2023-08-07T06:16:10;2.00;;;0.93;;
48375;SDS011;34178;50.904;11.560;2023-08-07T06:18:36;4.43;;;0.90;;
48375;SDS011;34178;50.904;11.560;2023-08-07T06:21:02;1.73;;;0.70;;
48375;SDS011;34178;50.904;11.560;2023-08-07T06:23:35;2.42;;;0.80;;
48375;SDS011;34178;50.904;11.560;2023-08-07T06:26:00;1.75;;;0.70;;
48375;SDS011;34178;50.904;11.560;2023-08-07T06:28:33;1.60;;;0.70;;
48375;SDS011;34178;50.904;11.560;2023-08-07T06:31:06;1.35;;;0.60;;
48375;SDS011;34178;50.904;11.560;2023-08-07T06:33:32;2.17;;;0.73;;
48375;SDS011;34178;50.904;11.560;2023-08-07T06:35:59;1.23;;;0.50;;
48375;SDS011;34178;50.904;11.560;2023-08-07T06:38:25;0.75;;;0.60;;
48375;SDS011;34178;50.904;11.560;2023-08-07T06:40:51;2.35;;;0.70;;
48375;SDS011;34178;50.904;11.560;2023-08-07T06:43:17;1.05;;;0.82;;
48375;SDS011;34178;50.904;11.560;2023-08-07T06:45:43;1.85;;;0.60;;
48375;SDS011;34178;50.904;11.560;2023-08-07T06:48:11;1.30;;;0.75;;
48375;SDS011;34178;50.904;11.560;2023-08-07T06:50:37;2.63;;;0.60;;
48375;SDS011;34178;50.904;11.560;2023-08-07T06:53:03;2.47;;;0.60;;
48375;SDS011;34178;50.904;11.560;2023-08-07T06:55:28;2.42;;;0.60;;
48375;SDS011;34178;50.904;11.560;2023-08-07T06:57:54;1.70;;;0.85;;
48375;SDS011;34178;50.904;11.560;2023-08-07T07:00:20;1.17;;;0.70;;
48375;SDS011;34178;50.904;11.560;2023-08-07T07:02:45;1.13;;;0.52;;
48375;SDS011;34178;50.904;11.560;2023-08-07T07:05:11;3.42;;;0.70;;
48375;SDS011;34178;50.904;11.560;2023-08-07T07:07:37;1.30;;;0.60;;
48375;SDS011;34178;50.904;11.560;2023-08-07T07:10:03;0.70;;;0.50;;
48375;SDS011;34178;50.904;11.560;2023-08-07T07:12:29;3.72;;;0.60;;
48375;SDS011;34178;50.904;11.560;2023-08-07T07:14:55;1.33;;;0.57;;
48375;SDS011;34178;50.904;11.560;2023-08-07T07:17:20;1.02;;;0.60;;
48375;SDS011;34178;50.904;11.560;2023-08-07T07:19:46;1.48;;;0.70;;
48375;SDS011;34178;50.904;11.560;2023-08-07T07:22:12;2.35;;;0.73;;
48375;SDS011;34178;50.904;11.560;2023-08-07T07:24:38;3.00;;;0.55;;
48375;SDS011;34178;50.904;11.560;2023-08-07T07:27:04;1.23;;;0.60;;
48375;SDS011;34178;50.904;11.560;2023-08-07T07:29:30;2.63;;;0.65;;
48375;SDS011;34178;50.904;11.560;2023-08-07T07:31:55;1.67;;;0.70;;
48375;SDS011;34178;50.904;11.560;2023-08-07T07:34:21;2.65;;;0.73;;
48375;SDS011;34178;50.904;11.560;2023-08-07T07:36:47;2.92;;;1.10;;
48375;SDS011;34178;50.904;11.560;2023-08-07T07:39:13;2.25;;;0.70;;
48375;SDS011;34178;50.904;11.560;2023-08-07T07:41:38;3.78;;;0.75;;
48375;SDS011;34178;50.904;11.560;2023-08-07T07:44:04;1.40;;;0.60;;
48375;SDS011;34178;50.904;11.560;2023-08-07T07:46:30;1.60;;;0.70;;
48375;SDS011;34178;50.904;11.560;2023-08-07T07:48:57;0.60;;;0.38;;
48375;SDS011;34178;50.904;11.560;2023-08-07T07:51:23;1.27;;;0.60;;
48375;SDS011;34178;50.904;11.560;2023-08-07T07:53:49;1.02;;;0.47;;
48375;SDS011;34178;50.904;11.560;2023-08-07T07:56:15;2.25;;;0.50;;
48375;SDS011;34178;50.904;11.560;2023-08-07T07:58:40;1.65;;;0.43;;
48375;SDS011;34178;50.904;11.560;2023-08-07T08:01:06;0.82;;;0.30;;
48375;SDS011;34178;50.904;11.560;2023-08-07T08:03:33;2.25;;;0.40;;
48375;SDS011;34178;50.904;11.560;2023-08-07T08:05:59;1.13;;;0.30;;
48375;SDS011;34178;50.904;11.560;2023-08-07T08:08:25;0.80;;;0.30;;
48375;SDS011;34178;50.904;11.560;2023-08-07T08:10:51;0.90;;;0.30;;
48375;SDS011;34178;50.904;11.560;2023-08-07T08:13:16;0.28;;;0.13;;
48375;SDS011;34178;50.904;11.560;2023-08-07T08:15:43;0.28;;;0.20;;
48375;SDS011;34178;50.904;11.560;2023-08-07T08:18:09;0.73;;;0.22;;
48375;SDS011;34178;50.904;11.560;2023-08-07T08:20:35;0.57;;;0.20;;
48375;SDS011;34178;50.904;11.560;2023-08-07T08:23:01;1.58;;;0.28;;
48375;SDS011;34178;50.904;11.560;2023-08-07T08:25:27;1.95;;;0.30;;
48375;SDS011;34178;50.904;11.560;2023-08-07T08:27:53;1.45;;;0.30;;
48375;SDS011;34178;50.904;11.560;2023-08-07T08:30:18;0.22;;;0.20;;
48375;SDS011;34178;50.904;11.560;2023-08-07T08:32:44;0.20;;;0.10;;
48375;SDS011;34178;50.904;11.560;2023-08-07T08:35:10;1.70;;;0.40;;
48375;SDS011;34178;50.904;11.560;2023-08-07T08:37:36;1.73;;;0.20;;
48375;SDS011;34178;50.904;11.560;2023-08-07T08:40:02;2.58;;;0.20;;
48375;SDS011;34178;50.904;11.560;2023-08-07T08:42:28;0.65;;;0.30;;
48375;SDS011;34178;50.904;11.560;2023-08-07T08:44:55;1.23;;;0.20;;
48375;SDS011;34178;50.904;11.560;2023-08-07T08:47:21;0.57;;;0.25;;
48375;SDS011;34178;50.904;11.560;2023-08-07T08:49:54;0.65;;;0.40;;
48375;SDS011;34178;50.904;11.560;2023-08-07T08:52:28;0.47;;;0.30;;
48375;SDS011;34178;50.904;11.560;2023-08-07T09:44:05;1.20;;;0.10;;
48375;SDS011;34178;50.904;11.560;2023-08-07T09:46:40;0.30;;;0.20;;
48375;SDS011;34178;50.904;11.560;2023-08-07T09:49:09;0.47;;;0.20;;
48375;SDS011;34178;50.904;11.560;2023-08-07T09:51:42;1.05;;;0.35;;
48375;SDS011;34178;50.904;11.560;2023-08-07T09:54:11;1.67;;;0.20;;
48375;SDS011;34178;50.904;11.560;2023-08-07T09:56:40;0.98;;;0.20;;
48375;SDS011;34178;50.904;11.560;2023-08-07T09:59:06;0.52;;;0.20;;
48375;SDS011;34178;50.904;11.560;2023-08-07T10:01:33;0.47;;;0.13;;
48375;SDS011;34178;50.904;11.560;2023-08-07T10:04:02;0.25;;;0.10;;
48375;SDS011;34178;50.904;11.560;2023-08-07T10:06:28;0.65;;;0.10;;
48375;SDS011;34178;50.904;11.560;2023-08-07T10:08:54;0.35;;;0.05;;
48375;SDS011;34178;50.904;11.560;2023-08-07T10:11:21;0.88;;;0.10;;
48375;SDS011;34178;50.904;11.560;2023-08-07T10:13:48;0.82;;;0.20;;
48375;SDS011;34178;50.904;11.560;2023-08-07T10:16:14;0.00;;;0.00;;
48375;SDS011;34178;50.904;11.560;2023-08-07T10:18:40;0.35;;;0.15;;
48375;SDS011;34178;50.904;11.560;2023-08-07T10:21:06;0.10;;;0.05;;
48375;SDS011;34178;50.904;11.560;2023-08-07T10:23:35;0.52;;;0.25;;
48375;SDS011;34178;50.904;11.560;2023-08-07T10:26:03;3.65;;;0.10;;
48375;SDS011;34178;50.904;11.560;2023-08-07T10:28:30;0.50;;;0.30;;
48375;SDS011;34178;50.904;11.560;2023-08-07T10:30:58;1.27;;;0.30;;
48375;SDS011;34178;50.904;11.560;2023-08-07T10:33:25;0.15;;;0.10;;
48375;SDS011;34178;50.904;11.560;2023-08-07T10:35:51;1.80;;;0.22;;
48375;SDS011;34178;50.904;11.560;2023-08-07T10:38:22;1.10;;;0.10;;
48375;SDS011;34178;50.904;11.560;2023-08-07T10:41:02;0.45;;;0.10;;
48375;SDS011;34178;50.904;11.560;2023-08-07T10:43:28;2.05;;;0.35;;
48375;SDS011;34178;50.904;11.560;2023-08-07T10:46:04;0.20;;;0.20;;
48375;SDS011;34178;50.904;11.560;2023-08-07T10:48:44;1.55;;;0.17;;
48375;SDS011;34178;50.904;11.560;2023-08-07T10:51:14;0.73;;;0.40;;
48375;SDS011;34178;50.904;11.560;2023-08-07T10:53:44;0.77;;;0.20;;
48375;SDS011;34178;50.904;11.560;2023-08-07T10:56:17;1.55;;;0.20;;
48375;SDS011;34178;50.904;11.560;2023-08-07T10:58:43;0.68;;;0.30;;
48375;SDS011;34178;50.904;11.560;2023-08-07T11:04:06;2.33;;;0.40;;
48375;SDS011;34178;50.904;11.560;2023-08-07T11:06:33;0.57;;;0.50;;
48375;SDS011;34178;50.904;11.560;2023-08-07T11:09:00;1.15;;;0.35;;
48375;SDS011;34178;50.904;11.560;2023-08-07T11:14:11;0.68;;;0.30;;
48375;SDS011;34178;50.904;11.560;2023-08-07T11:16:38;1.48;;;0.35;;
48375;SDS011;34178;50.904;11.560;2023-08-07T11:19:05;0.95;;;0.55;;
48375;SDS011;34178;50.904;11.560;2023-08-07T11:21:31;0.57;;;0.13;;
48375;SDS011;34178;50.904;11.560;2023-08-07T11:23:57;0.57;;;0.22;;
48375;SDS011;34178;50.904;11.560;2023-08-07T11:26:23;1.95;;;0.30;;
48375;SDS011;34178;50.904;11.560;2023-08-07T11:28:51;1.17;;;0.47;;
48375;SDS011;34178;50.904;11.560;2023-08-07T11:31:17;1.08;;;0.45;;
48375;SDS011;34178;50.904;11.560;2023-08-07T11:33:44;1.73;;;0.25;;
48375;SDS011;34178;50.904;11.560;2023-08-07T11:36:10;0.68;;;0.35;;
48375;SDS011;34178;50.904;11.560;2023-08-07T11:38:38;1.80;;;0.30;;
48375;SDS011;34178;50.904;11.560;2023-08-07T11:41:06;1.73;;;0.30;;
48375;SDS011;34178;50.904;11.560;2023-08-07T11:43:33;1.40;;;0.30;;
48375;SDS011;34178;50.904;11.560;2023-08-07T11:46:01;0.52;;;0.28;;
48375;SDS011;34178;50.904;11.560;2023-08-07T11:48:28;0.30;;;0.20;;
48375;SDS011;34178;50.904;11.560;2023-08-07T11:50:56;0.28;;;0.10;;
48375;SDS011;34178;50.904;11.560;2023-08-07T11:53:22;0.65;;;0.40;;
48375;SDS011;34178;50.904;11.560;2023-08-07T11:55:56;1.17;;;0.30;;
48375;SDS011;34178;50.904;11.560;2023-08-07T11:58:27;1.35;;;0.20;;
48375;SDS011;34178;50.904;11.560;2023-08-07T12:00:58;1.85;;;0.57;;
48375;SDS011;34178;50.904;11.560;2023-08-07T12:03:28;1.63;;;0.20;;
48375;SDS011;34178;50.904;11.560;2023-08-07T12:05:56;2.47;;;0.40;;
48375;SDS011;34178;50.904;11.560;2023-08-07T12:08:23;1.15;;;0.55;;
48375;SDS011;34178;50.904;11.560;2023-08-07T12:10:55;2.05;;;0.45;;
48375;SDS011;34178;50.904;11.560;2023-08-07T12:13:24;1.27;;;0.50;;
48375;SDS011;34178;50.904;11.560;2023-08-07T12:18:22;0.98;;;0.30;;
48375;SDS011;34178;50.904;11.560;2023-08-07T12:20:51;2.28;;;0.30;;
48375;SDS011;34178;50.904;11.560;2023-08-07T12:23:19;4.72;;;0.63;;
48375;SDS011;34178;50.904;11.560;2023-08-07T12:25:46;0.82;;;0.47;;
48375;SDS011;34178;50.904;11.560;2023-08-07T12:28:12;1.45;;;0.52;;
48375;SDS011;34178;50.904;11.560;2023-08-07T12:30:38;0.95;;;0.40;;
48375;SDS011;34178;50.904;11.560;2023-08-07T12:33:04;1.27;;;0.57;;
48375;SDS011;34178;50.904;11.560;2023-08-07T12:35:31;1.88;;;0.32;;
48375;SDS011;34178;50.904;11.560;2023-08-07T12:37:57;0.98;;;0.50;;
48375;SDS011;34178;50.904;11.560;2023-08-07T12:40:22;2.70;;;0.57;;
48375;SDS011;34178;50.904;11.560;2023-08-07T12:42:51;1.05;;;0.57;;
48375;SDS011;34178;50.904;11.560;2023-08-07T12:45:17;2.67;;;0.68;;
48375;SDS011;34178;50.904;11.560;2023-08-07T12:47:44;1.05;;;0.68;;
48375;SDS011;34178;50.904;11.560;2023-08-07T12:50:10;1.50;;;0.60;;
48375;SDS011;34178;50.904;11.560;2023-08-07T12:52:36;0.93;;;0.60;;
48375;SDS011;34178;50.904;11.560;2023-08-07T12:55:01;2.22;;;0.57;;
48375;SDS011;34178;50.904;11.560;2023-08-07T12:57:27;2.53;;;0.50;;
48375;SDS011;34178;50.904;11.560;2023-08-07T12:59:53;2.08;;;0.60;;
48375;SDS011;34178;50.904;11.560;2023-08-07T13:02:18;1.52;;;0.50;;
48375;SDS011;34178;50.904;11.560;2023-08-07T13:04:44;0.68;;;0.50;;
48375;SDS011;34178;50.904;11.560;2023-08-07T13:07:11;0.70;;;0.50;;
48375;SDS011;34178;50.904;11.560;2023-08-07T13:09:37;1.00;;;0.45;;
48375;SDS011;34178;50.904;11.560;2023-08-07T13:12:03;2.30;;;0.40;;
48375;SDS011;34178;50.904;11.560;2023-08-07T13:14:29;0.45;;;0.38;;
48375;SDS011;34178;50.904;11.560;2023-08-07T13:16:55;0.57;;;0.40;;
48375;SDS011;34178;50.904;11.560;2023-08-07T13:19:20;1.60;;;0.40;;
48375;SDS011;34178;50.904;11.560;2023-08-07T13:21:46;2.25;;;0.55;;
48375;SDS011;34178;50.904;11.560;2023-08-07T13:24:12;0.75;;;0.60;;
48375;SDS011;34178;50.904;11.560;2023-08-07T13:26:38;0.68;;;0.47;;
48375;SDS011;34178;50.904;11.560;2023-08-07T13:29:10;1.08;;;0.32;;
48375;SDS011;34178;50.904;11.560;2023-08-07T13:31:39;0.70;;;0.40;;
48375;SDS011;34178;50.904;11.560;2023-08-07T13:34:11;0.90;;;0.40;;
48375;SDS011;34178;50.904;11.560;2023-08-07T13:36:37;1.95;;;0.50;;
48375;SDS011;34178;50.904;11.560;2023-08-07T13:39:04;1.60;;;0.60;;
48375;SDS011;34178;50.904;11.560;2023-08-07T13:41:30;2.70;;;0.52;;
48375;SDS011;34178;50.904;11.560;2023-08-07T13:43:56;0.43;;;0.30;;
48375;SDS011;34178;50.904;11.560;2023-08-07T13:46:21;1.42;;;0.60;;
48375;SDS011;34178;50.904;11.560;2023-08-07T13:48:47;2.67;;;0.65;;
48375;SDS011;34178;50.904;11.560;2023-08-07T13:51:16;1.80;;;0.52;;
48375;SDS011;34178;50.904;11.560;2023-08-07T13:53:43;2.15;;;0.57;;
48375;SDS011;34178;50.904;11.560;2023-08-07T13:56:09;2.33;;;0.70;;
48375;SDS011;34178;50.904;11.560;2023-08-07T13:58:37;1.35;;;0.65;;
48375;SDS011;34178;50.904;11.560;2023-08-07T14:01:08;1.17;;;0.50;;
48375;SDS011;34178;50.904;11.560;2023-08-07T14:03:34;1.17;;;0.43;;
48375;SDS011;34178;50.904;11.560;2023-08-07T14:06:00;0.98;;;0.50;;
48375;SDS011;34178;50.904;11.560;2023-08-07T14:08:26;0.95;;;0.40;;
48375;SDS011;34178;50.904;11.560;2023-08-07T14:10:51;1.73;;;0.60;;
48375;SDS011;34178;50.904;11.560;2023-08-07T14:13:17;1.83;;;0.63;;
48375;SDS011;34178;50.904;11.560;2023-08-07T14:15:43;2.03;;;0.60;;
48375;SDS011;34178;50.904;11.560;2023-08-07T14:18:09;3.38;;;0.55;;
48375;SDS011;34178;50.904;11.560;2023-08-07T14:20:36;0.85;;;0.30;;
48375;SDS011;34178;50.904;11.560;2023-08-07T14:23:02;3.97;;;0.40;;
48375;SDS011;34178;50.904;11.560;2023-08-07T14:25:28;1.10;;;0.50;;
48375;SDS011;34178;50.904;11.560;2023-08-07T14:27:53;2.85;;;0.55;;
48375;SDS011;34178;50.904;11.560;2023-08-07T14:30:19;2.00;;;0.50;;
48375;SDS011;34178;50.904;11.560;2023-08-07T14:32:45;1.92;;;0.60;;
48375;SDS011;34178;50.904;11.560;2023-08-07T14:35:12;0.98;;;0.38;;
48375;SDS011;34178;50.904;11.560;2023-08-07T14:37:41;1.00;;;0.43;;
48375;SDS011;34178;50.904;11.560;2023-08-07T14:40:07;3.65;;;0.80;;
48375;SDS011;34178;50.904;11.560;2023-08-07T14:42:33;2.88;;;0.60;;
48375;SDS011;34178;50.904;11.560;2023-08-07T14:44:58;3.80;;;0.40;;
48375;SDS011;34178;50.904;11.560;2023-08-07T14:47:24;2.08;;;0.60;;
48375;SDS011;34178;50.904;11.560;2023-08-07T14:49:50;2.05;;;0.60;;
48375;SDS011;34178;50.904;11.560;2023-08-07T14:52:16;2.45;;;0.93;;
48375;SDS011;34178;50.904;11.560;2023-08-07T14:54:42;3.67;;;0.93;;
48375;SDS011;34178;50.904;11.560;2023-08-07T14:57:08;4.57;;;0.88;;
48375;SDS011;34178;50.904;11.560;2023-08-07T14:59:34;4.03;;;1.13;;
48375;SDS011;34178;50.904;11.560;2023-08-07T15:02:00;4.38;;;1.27;;
48375;SDS011;34178;50.904;11.560;2023-08-07T15:04:25;3.45;;;0.85;;
48375;SDS011;34178;50.904;11.560;2023-08-07T15:06:51;3.88;;;1.10;;
48375;SDS011;34178;50.904;11.560;2023-08-07T15:09:17;5.63;;;2.05;;
48375;SDS011;34178;50.904;11.560;2023-08-07T15:11:44;6.97;;;1.85;;
48375;SDS011;34178;50.904;11.560;2023-08-07T15:14:13;6.20;;;2.03;;
48375;SDS011;34178;50.904;11.560;2023-08-07T15:16:39;11.73;;;2.00;;
48375;SDS011;34178;50.904;11.560;2023-08-07T15:19:05;9.48;;;2.45;;
48375;SDS011;34178;50.904;11.560;2023-08-07T15:21:31;8.60;;;2.58;;
48375;SDS011;34178;50.904;11.560;2023-08-07T15:23:56;6.15;;;2.40;;
48375;SDS011;34178;50.904;11.560;2023-08-07T15:26:22;4.97;;;2.00;;
48375;SDS011;34178;50.904;11.560;2023-08-07T15:28:48;5.45;;;1.70;;
48375;SDS011;34178;50.904;11.560;2023-08-07T15:31:13;9.18;;;1.90;;
48375;SDS011;34178;50.904;11.560;2023-08-07T15:33:39;6.22;;;2.03;;
48375;SDS011;34178;50.904;11.560;2023-08-07T15:36:05;6.30;;;2.08;;
48375;SDS011;34178;50.904;11.560;2023-08-07T15:38:31;7.10;;;2.15;;
48375;SDS011;34178;50.904;11.560;2023-08-07T15:41:00;6.97;;;2.00;;
48375;SDS011;34178;50.904;11.560;2023-08-07T15:43:26;9.00;;;2.53;;
48375;SDS011;34178;50.904;11.560;2023-08-07T15:45:52;7.55;;;2.30;;
48375;SDS011;34178;50.904;11.560;2023-08-07T15:48:18;5.70;;;2.28;;
48375;SDS011;34178;50.904;11.560;2023-08-07T15:50:44;11.10;;;2.28;;
48375;SDS011;34178;50.904;11.560;2023-08-07T15:53:10;9.38;;;1.98;;
48375;SDS011;34178;50.904;11.560;2023-08-07T15:55:35;7.75;;;2.10;;
48375;SDS011;34178;50.904;11.560;2023-08-07T15:58:02;7.78;;;2.65;;
48375;SDS011;34178;50.904;11.560;2023-08-07T16:00:29;8.18;;;2.20;;
48375;SDS011;34178;50.904;11.560;2023-08-07T16:02:59;4.85;;;1.70;;
48375;SDS011;34178;50.904;11.560;2023-08-07T16:05:33;4.53;;;2.13;;
48375;SDS011;34178;50.904;11.560;2023-08-07T16:08:00;8.48;;;2.25;;
48375;SDS011;34178;50.904;11.560;2023-08-07T16:10:27;9.15;;;2.30;;
48375;SDS011;34178;50.904;11.560;2023-08-07T16:12:53;7.18;;;2.60;;
48375;SDS011;34178;50.904;11.560;2023-08-07T16:15:20;9.02;;;2.10;;
48375;SDS011;34178;50.904;11.560;2023-08-07T16:17:49;8.95;;;2.50;;
48375;SDS011;34178;50.904;11.560;2023-08-07T16:20:15;6.40;;;1.80;;
48375;SDS011;34178;50.904;11.560;2023-08-07T16:22:41;8.02;;;2.28;;
48375;SDS011;34178;50.904;11.560;2023-08-07T16:25:07;6.47;;;1.75;;
48375;SDS011;34178;50.904;11.560;2023-08-07T16:27:33;4.47;;;2.00;;
48375;SDS011;34178;50.904;11.560;2023-08-07T16:30:00;5.50;;;2.10;;
48375;SDS011;34178;50.904;11.560;2023-08-07T16:32:31;7.18;;;1.80;;
48375;SDS011;34178;50.904;11.560;2023-08-07T16:34:58;6.95;;;2.03;;
48375;SDS011;34178;50.904;11.560;2023-08-07T16:37:27;5.43;;;1.85;;
48375;SDS011;34178;50.904;11.560;2023-08-07T16:42:19;5.30;;;2.00;;
48375;SDS011;34178;50.904;11.560;2023-08-07T16:44:46;7.47;;;2.17;;
48375;SDS011;34178;50.904;11.560;2023-08-07T16:47:12;8.30;;;2.13;;
48375;SDS011;34178;50.904;11.560;2023-08-07T16:49:37;6.90;;;2.13;;
48375;SDS011;34178;50.904;11.560;2023-08-07T16:52:04;5.38;;;2.05;;
48375;SDS011;34178;50.904;11.560;2023-08-07T16:54:30;4.63;;;2.08;;
48375;SDS011;34178;50.904;11.560;2023-08-07T16:56:56;7.68;;;2.20;;
48375;SDS011;34178;50.904;11.560;2023-08-07T16:59:21;4.88;;;2.08;;
48375;SDS011;34178;50.904;11.560;2023-08-07T17:01:47;7.97;;;2.10;;
48375;SDS011;34178;50.904;11.560;2023-08-07T17:04:13;5.65;;;1.98;;
48375;SDS011;34178;50.904;11.560;2023-08-07T17:06:39;5.55;;;1.90;;
48375;SDS011;34178;50.904;11.560;2023-08-07T17:09:04;8.40;;;1.90;;
48375;SDS011;34178;50.904;11.560;2023-08-07T17:11:30;5.90;;;2.00;;
48375;SDS011;34178;50.904;11.560;2023-08-07T17:13:56;4.97;;;1.60;;
48375;SDS011;34178;50.904;11.560;2023-08-07T17:16:22;7.32;;;1.83;;
48375;SDS011;34178;50.904;11.560;2023-08-07T17:18:48;6.18;;;2.03;;
48375;SDS011;34178;50.904;11.560;2023-08-07T17:21:14;7.82;;;2.20;;
48375;SDS011;34178;50.904;11.560;2023-08-07T17:23:40;6.28;;;1.80;;
48375;SDS011;34178;50.904;11.560;2023-08-07T17:26:05;7.47;;;2.15;;
48375;SDS011;34178;50.904;11.560;2023-08-07T17:28:31;4.90;;;1.65;;
48375;SDS011;34178;50.904;11.560;2023-08-07T17:30:59;6.70;;;1.90;;
48375;SDS011;34178;50.904;11.560;2023-08-07T17:33:25;6.60;;;2.08;;
48375;SDS011;34178;50.904;11.560;2023-08-07T17:35:51;6.25;;;1.88;;
48375;SDS011;34178;50.904;11.560;2023-08-07T17:38:16;7.80;;;2.13;;
48375;SDS011;34178;50.904;11.560;2023-08-07T17:40:44;6.20;;;2.05;;
48375;SDS011;34178;50.904;11.560;2023-08-07T17:43:10;5.93;;;1.95;;
48375;SDS011;34178;50.904;11.560;2023-08-07T17:45:36;7.40;;;2.10;;
48375;SDS011;34178;50.904;11.560;2023-08-07T17:48:02;6.25;;;1.85;;
48375;SDS011;34178;50.904;11.560;2023-08-07T17:50:27;7.88;;;1.73;;
48375;SDS011;34178;50.904;11.560;2023-08-07T17:52:53;6.60;;;1.73;;
48375;SDS011;34178;50.904;11.560;2023-08-07T17:55:20;6.97;;;1.92;;
48375;SDS011;34178;50.904;11.560;2023-08-07T17:57:46;5.68;;;2.03;;